Time;durP1;ratioP1;P1;durP2;ratioP2;P2;SDS_P1;SDS_P2;PMS_P1;PMS_P2;Temp;Humidity;BMP_temperature;BMP_pressure;BME280_temperature;BME280_humidity;BME280_pressure;Samples;Min_cycle;Max_cycle;Signal;HPM_P1;HPM_P2
2020/12/12 00:02:18;;;;;;;25.53;11.30;;;;;;;1.51;82.23;100130.72;126850;1094;104628;-80
2020/12/12 00:04:47;;;;;;;25.83;10.37;;;;;;;1.52;81.67;100124.77;126880;1094;104638;-79
2020/12/12 00:07:17;;;;;;;24.60;10.23;;;;;;;1.53;82.29;100135.22;126825;1094;104650;-79
2020/12/12 00:09:47;;;;;;;25.60;11.47;;;;;;;1.52;82.09;100129.94;126862;1095;104984;-78
2020/12/12 00:12:16;;;;;;;22.87;9.50;;;;;;;1.49;82.06;100132.33;126851;1095;104814;-78
2020/12/12 00:14:45;;;;;;;23.90;8.47;;;;;;;1.42;82.33;100133.62;126847;1095;104436;-78
2020/12/12 00:17:14;;;;;;;28.60;11.23;;;;;;;1.35;82.21;100134.88;126851;1094;104439;-80
2020/12/12 00:19:45;;;;;;;25.50;9.63;;;;;;;1.37;82.18;100137.56;126845;1095;104577;-80
2020/12/12 00:22:14;;;;;;;25.30;9.97;;;;;;;1.38;82.02;100137.67;126739;1094;104804;-80
2020/12/12 00:24:43;;;;;;;28.03;10.87;;;;;;;1.44;82.63;100135.49;126763;1094;104766;-80
2020/12/12 00:27:12;;;;;;;27.80;11.97;;;;;;;1.47;82.29;100132.22;126844;1095;104638;-79
2020/12/12 00:29:41;;;;;;;27.90;11.57;;;;;;;1.48;82.40;100130.52;126877;1094;104570;-80
2020/12/12 00:32:10;;;;;;;29.70;11.83;;;;;;;1.51;82.30;100130.72;127279;1091;104574;-80
2020/12/12 00:34:39;;;;;;;32.65;13.70;;;;;;;1.53;82.43;100134.33;127317;1092;104576;-80
2020/12/12 00:37:08;;;;;;;23.93;10.17;;;;;;;1.54;81.86;100133.52;127374;1092;104455;-79
2020/12/12 00:39:37;;;;;;;29.23;11.43;;;;;;;1.54;82.25;100131.84;127412;1091;104430;-80
2020/12/12 00:42:08;;;;;;;25.37;10.60;;;;;;;1.54;82.14;100130.92;127377;1092;104462;-80
2020/12/12 00:44:37;;;;;;;27.43;11.57;;;;;;;1.55;82.04;100130.14;127386;1091;104552;-80
2020/12/12 00:47:06;;;;;;;26.27;10.60;;;;;;;1.57;82.55;100128.55;127370;1092;104453;-80
2020/12/12 00:49:35;;;;;;;27.80;11.47;;;;;;;1.56;81.91;100129.36;127345;1092;104988;-80
2020/12/12 00:52:05;;;;;;;25.27;10.80;;;;;;;1.55;82.17;100124.97;127369;1091;104436;-80
2020/12/12 00:54:35;;;;;;;29.23;11.27;;;;;;;1.53;82.24;100127.45;127378;1091;104539;-79
2020/12/12 00:57:10;;;;;;;24.95;9.35;;;;;;;1.57;82.03;100121.70;127320;1092;104472;-79
2020/12/12 00:59:39;;;;;;;19.80;8.47;;;;;;;1.57;82.49;100124.29;127371;1092;104446;-80
2020/12/12 01:02:08;;;;;;;26.10;10.77;;;;;;;1.59;82.27;100125.27;127325;1092;104435;-79
2020/12/12 01:04:37;;;;;;;26.17;11.00;;;;;;;1.60;82.05;100111.52;127368;1092;104554;-80
2020/12/12 01:07:06;;;;;;;26.70;11.30;;;;;;;1.64;82.49;100111.72;127377;1092;104551;-80
2020/12/12 01:09:35;;;;;;;21.17;8.90;;;;;;;1.63;82.18;100109.95;127340;1092;104536;-80
2020/12/12 01:12:05;;;;;;;21.87;8.20;;;;;;;1.58;82.35;100118.30;127324;1093;104551;-79
2020/12/12 01:14:34;;;;;;;24.27;10.43;;;;;;;1.54;82.25;100105.06;127406;1092;104459;-79
2020/12/12 01:17:02;;;;;;;23.80;10.13;;;;;;;1.58;82.29;100104.48;127398;1092;104432;-79
2020/12/12 01:19:32;;;;;;;20.47;8.57;;;;;;;1.66;82.25;100107.57;127365;1092;104424;-78
2020/12/12 01:22:01;;;;;;;22.20;8.10;;;;;;;1.67;82.14;100106.75;127390;1092;104426;-79
2020/12/12 01:24:30;;;;;;;19.97;7.93;;;;;;;1.63;82.53;100104.78;127331;1091;104500;-79
2020/12/12 01:26:59;;;;;;;25.27;9.60;;;;;;;1.60;82.10;100101.18;127387;1091;104593;-79
2020/12/12 01:29:30;;;;;;;26.30;10.90;;;;;;;1.61;82.31;100102.09;127405;1092;104436;-79
2020/12/12 01:32:01;;;;;;;25.30;10.37;;;;;;;1.63;82.31;100100.49;127410;1092;104456;-81
2020/12/12 01:34:30;;;;;;;24.97;10.03;;;;;;;1.68;82.87;100091.33;127294;1092;104576;-81
2020/12/12 01:36:59;;;;;;;17.83;6.70;;;;;;;1.70;82.05;100101.78;127285;1091;104482;-80
2020/12/12 01:39:28;;;;;;;22.77;9.20;;;;;;;1.65;81.79;100093.72;127343;1092;104436;-79
2020/12/12 01:41:57;;;;;;;23.63;9.50;;;;;;;1.61;82.29;100090.05;127328;1092;104430;-80
2020/12/12 01:44:26;;;;;;;23.10;8.93;;;;;;;1.60;82.00;100089.95;127347;1092;104430;-79
2020/12/12 01:46:55;;;;;;;23.50;8.30;;;;;;;1.61;81.93;100078.82;127377;1092;104432;-79
2020/12/12 01:49:24;;;;;;;26.57;9.93;;;;;;;1.63;82.50;100078.92;127362;1092;104462;-79
2020/12/12 01:51:54;;;;;;;23.40;9.07;;;;;;;1.65;82.38;100078.20;127378;1091;104430;-79
2020/12/12 01:54:24;;;;;;;23.67;9.60;;;;;;;1.61;82.35;100079.70;127364;1091;104458;-79
2020/12/12 01:56:55;;;;;;;27.30;9.93;;;;;;;1.60;82.30;100082.19;127322;1091;104611;-80
2020/12/12 01:59:24;;;;;;;24.67;9.97;;;;;;;1.58;81.80;100088.97;127343;1092;104426;-80
2020/12/12 02:01:58;;;;;;;25.23;10.97;;;;;;;1.62;82.59;100088.34;127310;1092;104452;-79
2020/12/12 02:04:30;;;;;;;24.72;10.88;;;;;;;1.67;82.93;100081.80;127351;1092;104446;-78
2020/12/12 02:06:59;;;;;;;25.67;9.60;;;;;;;1.71;82.41;100088.94;127291;1092;104430;-78
2020/12/12 02:09:28;;;;;;;26.10;10.73;;;;;;;1.78;82.24;100087.66;127346;1092;104560;-79
2020/12/12 02:11:58;;;;;;;25.37;9.57;;;;;;;1.76;82.45;100076.30;127354;1092;104443;-79
2020/12/12 02:14:27;;;;;;;22.93;9.83;;;;;;;1.77;82.26;100078.98;127301;1092;104551;-79
2020/12/12 02:17:01;;;;;;;30.13;10.43;;;;;;;1.76;82.58;100081.48;127351;1092;104498;-79
2020/12/12 02:19:30;;;;;;;27.70;9.60;;;;;;;1.75;82.41;100069.36;127302;1091;104446;-79
2020/12/12 02:22:01;;;;;;;24.03;9.07;;;;;;;1.75;82.25;100069.36;127384;1092;104493;-79
2020/12/12 02:24:33;;;;;;;25.20;9.17;;;;;;;1.73;82.14;100066.67;127354;1093;104497;-78
2020/12/12 02:27:04;;;;;;;25.67;8.83;;;;;;;1.74;82.34;100059.80;127361;1092;104516;-78
2020/12/12 02:29:46;;;;;;;27.10;10.27;;;;;;;1.73;82.36;100058.92;127385;1092;104430;-79
2020/12/12 02:32:16;;;;;;;29.07;9.90;;;;;;;1.74;82.58;100062.38;127362;1092;104545;-79
2020/12/12 02:34:46;;;;;;;24.63;8.77;;;;;;;1.73;82.17;100063.17;127340;1092;104452;-79
2020/12/12 02:37:15;;;;;;;24.23;9.87;;;;;;;1.69;82.20;100059.50;127339;1092;104430;-79
2020/12/12 02:39:43;;;;;;;20.40;7.37;;;;;;;1.71;82.35;100057.02;127317;1092;104426;-78
2020/12/12 02:42:13;;;;;;;27.03;9.87;;;;;;;1.72;82.10;100059.70;127337;1091;104435;-78
2020/12/12 02:44:42;;;;;;;20.67;7.47;;;;;;;1.78;82.36;100054.92;127370;1092;104490;-77
2020/12/12 02:47:11;;;;;;;23.77;8.50;;;;;;;1.77;82.16;100055.70;127381;1091;104430;-78
2020/12/12 02:49:40;;;;;;;27.03;9.80;;;;;;;1.80;82.46;100058.48;127409;1092;104680;-79
2020/12/12 02:52:09;;;;;;;29.70;10.20;;;;;;;1.80;81.99;100053.31;127314;1091;104430;-79
2020/12/12 02:54:38;;;;;;;25.60;8.55;;;;;;;1.78;82.21;100060.09;127348;1092;104496;-77
2020/12/12 02:57:07;;;;;;;25.73;9.70;;;;;;;1.77;82.56;100053.12;127398;1092;104423;-79
2020/12/12 02:59:36;;;;;;;25.10;8.40;;;;;;;1.82;82.14;100060.28;127383;1092;104491;-79
2020/12/12 03:02:05;;;;;;;27.07;9.80;;;;;;;1.87;82.73;100054.62;127353;1091;104501;-79
2020/12/12 03:04:33;;;;;;;23.63;9.53;;;;;;;1.89;82.31;100052.12;127331;1091;103218;-78
2020/12/12 03:07:03;;;;;;;24.23;9.67;;;;;;;1.89;82.11;100047.84;127358;1091;104433;-78
2020/12/12 03:09:32;;;;;;;23.87;9.27;;;;;;;1.88;82.17;100048.62;127356;1093;104458;-77
2020/12/12 03:12:04;;;;;;;23.60;9.10;;;;;;;1.89;82.72;100055.59;127406;1092;104442;-79
2020/12/12 03:14:33;;;;;;;25.00;9.60;;;;;;;1.93;81.70;100054.09;127352;1091;104589;-77
2020/12/12 03:17:02;;;;;;;19.47;6.67;;;;;;;1.95;82.47;100048.22;127382;1092;104628;-79
2020/12/12 03:19:31;;;;;;;27.03;9.03;;;;;;;1.95;82.12;100060.28;127368;1092;104561;-79
2020/12/12 03:22:00;;;;;;;25.20;8.03;;;;;;;1.96;82.06;100054.28;127355;1093;104433;-79
2020/12/12 03:24:31;;;;;;;23.30;8.83;;;;;;;1.95;82.38;100052.52;127345;1092;104436;-79
2020/12/12 03:27:03;;;;;;;27.15;9.20;;;;;;;1.96;82.35;100049.11;127358;1091;104557;-79
2020/12/12 03:29:37;;;;;;;27.57;8.97;;;;;;;1.96;81.97;100041.34;127303;1092;104522;-79
2020/12/12 03:32:07;;;;;;;28.03;9.00;;;;;;;1.98;82.24;100044.94;127364;1092;104427;-79
2020/12/12 03:34:40;;;;;;;25.13;9.20;;;;;;;1.98;81.54;100047.53;127353;1092;104433;-79
2020/12/12 03:37:11;;;;;;;24.45;9.40;;;;;;;2.04;82.41;100047.91;127360;1091;104627;-78
2020/12/12 03:39:41;;;;;;;26.47;8.73;;;;;;;2.08;82.34;100044.70;127419;1092;104436;-79
2020/12/12 03:42:10;;;;;;;24.93;9.20;;;;;;;2.06;82.07;100043.72;127283;1092;104507;-80
2020/12/12 03:44:39;;;;;;;25.43;9.27;;;;;;;2.05;82.17;100041.03;127356;1091;104563;-79
2020/12/12 03:47:08;;;;;;;29.20;8.93;;;;;;;2.03;82.44;100040.94;127351;1092;104670;-79
2020/12/12 03:49:38;;;;;;;25.37;7.53;;;;;;;2.05;82.23;100034.16;127401;1091;104445;-79
2020/12/12 03:52:07;;;;;;;23.33;7.73;;;;;;;2.02;82.02;100030.48;127322;1092;104490;-78
2020/12/12 03:54:36;;;;;;;23.83;8.57;;;;;;;1.96;82.02;100030.98;127310;1091;104612;-79
2020/12/12 03:57:06;;;;;;;30.33;8.50;;;;;;;1.92;82.34;100026.45;127354;1092;104446;-78
2020/12/12 03:59:35;;;;;;;28.17;10.10;;;;;;;1.83;82.27;100024.16;127340;1092;104429;-79
2020/12/12 04:02:04;;;;;;;28.43;7.47;;;;;;;1.81;82.20;100030.95;127362;1092;104478;-79
2020/12/12 04:04:33;;;;;;;24.73;8.37;;;;;;;1.82;82.40;100032.71;127363;1092;104439;-79
2020/12/12 04:07:02;;;;;;;30.43;9.17;;;;;;;1.83;82.54;100033.63;127323;1092;104436;-79
2020/12/12 04:09:31;;;;;;;32.17;9.47;;;;;;;1.86;82.38;100032.12;127327;1092;104433;-79
2020/12/12 04:12:00;;;;;;;27.10;8.93;;;;;;;1.83;82.31;100033.63;127369;1092;104430;-79
2020/12/12 04:14:29;;;;;;;27.57;9.07;;;;;;;1.82;82.23;100034.42;127367;1092;104554;-79
2020/12/12 04:16:58;;;;;;;28.13;8.20;;;;;;;1.85;82.85;100037.20;127306;1092;104455;-79
2020/12/12 04:19:27;;;;;;;31.45;8.40;;;;;;;1.84;82.05;100032.81;127339;1092;104474;-79
2020/12/12 04:21:56;;;;;;;29.10;8.63;;;;;;;1.78;82.63;100034.22;127380;1092;104439;-79
2020/12/12 04:24:25;;;;;;;29.77;9.60;;;;;;;1.80;82.24;100034.32;127385;1091;104433;-79
2020/12/12 04:26:54;;;;;;;29.80;8.70;;;;;;;1.76;82.20;100041.00;127367;1092;104449;-79
2020/12/12 04:29:23;;;;;;;31.33;9.20;;;;;;;1.75;82.12;100031.44;127369;1092;104430;-79
2020/12/12 04:31:51;;;;;;;32.17;9.90;;;;;;;1.80;82.09;100042.08;127305;1092;104502;-80
2020/12/12 04:34:20;;;;;;;25.00;7.80;;;;;;;1.84;82.84;100038.90;127358;1092;104419;-80
2020/12/12 04:36:49;;;;;;;30.73;9.23;;;;;;;1.83;82.08;100042.27;127401;1092;104615;-80
2020/12/12 04:39:20;;;;;;;24.37;7.40;;;;;;;1.75;82.31;100035.73;127433;1092;104430;-81
2020/12/12 04:41:53;;;;;;;22.17;6.40;;;;;;;1.72;82.41;100031.25;127334;1092;104435;-80
2020/12/12 04:44:23;;;;;;;31.15;8.33;;;;;;;1.68;82.89;100037.01;127308;1093;104439;-80
2020/12/12 04:46:53;;;;;;;32.80;9.07;;;;;;;1.62;82.51;100039.20;127334;1092;104430;-81
2020/12/12 04:49:22;;;;;;;25.63;7.40;;;;;;;1.62;82.51;100041.79;127306;1091;104423;-80
2020/12/12 04:51:51;;;;;;;27.63;8.10;;;;;;;1.63;82.98;100043.59;127361;1092;104449;-81
2020/12/12 04:54:25;;;;;;;30.33;9.60;;;;;;;1.69;82.94;100050.86;127345;1091;104564;-80
2020/12/12 04:56:58;;;;;;;26.47;8.43;;;;;;;1.71;82.56;100047.55;127354;1091;104436;-81
2020/12/12 04:59:31;;;;;;;31.33;8.53;;;;;;;1.73;82.69;100060.59;127394;1092;104615;-81
2020/12/12 05:02:01;;;;;;;28.00;9.27;;;;;;;1.72;82.31;100046.77;127361;1092;104458;-80
2020/12/12 05:04:31;;;;;;;24.37;7.33;;;;;;;1.72;82.62;100041.59;127345;1091;104977;-80
2020/12/12 05:06:59;;;;;;;22.37;6.93;;;;;;;1.73;82.46;100040.80;127353;1091;104586;-80
2020/12/12 05:09:28;;;;;;;27.45;8.60;;;;;;;1.72;82.71;100044.18;127313;1092;104493;-80
2020/12/12 05:11:59;;;;;;;30.25;9.55;;;;;;;1.74;82.36;100047.75;127342;1092;104490;-81
2020/12/12 05:14:29;;;;;;;22.13;6.83;;;;;;;1.74;82.86;100045.16;127342;1092;104554;-80
2020/12/12 05:16:59;;;;;;;24.80;8.80;;;;;;;1.70;82.46;100043.20;127322;1091;104622;-80
2020/12/12 05:19:29;;;;;;;22.43;8.27;;;;;;;1.69;82.85;100051.74;127310;1091;104681;-80
2020/12/12 05:22:02;;;;;;;25.77;9.27;;;;;;;1.67;82.48;100052.44;127349;1092;104488;-81
2020/12/12 05:24:35;;;;;;;26.42;7.25;;;;;;;1.67;82.74;100055.94;127427;1092;104432;-79
2020/12/12 05:27:06;;;;;;;23.20;7.97;;;;;;;1.63;82.39;100056.53;127378;1091;104427;-80
2020/12/12 05:29:37;;;;;;;31.60;8.07;;;;;;;1.61;82.70;100050.37;127348;1092;104427;-81
2020/12/12 05:32:07;;;;;;;23.50;7.10;;;;;;;1.57;82.80;100044.12;127357;1092;104528;-80
2020/12/12 05:34:35;;;;;;;23.97;7.93;;;;;;;1.56;82.73;100054.36;127334;1092;104449;-81
2020/12/12 05:37:05;;;;;;;23.23;6.60;;;;;;;1.56;82.72;100052.66;127333;1092;104429;-81
2020/12/12 05:39:36;;;;;;;27.23;7.63;;;;;;;1.62;82.71;100059.89;127357;1092;104430;-81
2020/12/12 05:42:07;;;;;;;20.93;7.30;;;;;;;1.66;82.56;100061.01;127430;1092;104544;-82
2020/12/12 05:44:41;;;;;;;20.17;8.50;;;;;;;1.69;82.71;100061.20;127366;1092;104423;-83
2020/12/12 05:47:15;;;;;;;25.00;7.37;;;;;;;1.71;83.05;100069.95;127331;1091;104583;-82
2020/12/12 05:49:47;;;;;;;21.87;6.10;;;;;;;1.70;82.20;100071.66;127347;1092;104462;-82
2020/12/12 05:52:18;;;;;;;20.83;6.60;;;;;;;1.68;82.39;100075.81;127332;1091;104433;-82
2020/12/12 05:54:48;;;;;;;21.80;6.67;;;;;;;1.66;82.85;100077.41;127338;1092;104442;-80
2020/12/12 05:57:18;;;;;;;19.20;5.90;;;;;;;1.66;82.46;100073.94;127368;1091;104590;-79
2020/12/12 05:59:48;;;;;;;24.70;7.57;;;;;;;1.61;82.61;100071.06;127398;1092;104430;-80
2020/12/12 06:02:29;;;;;;;23.10;7.07;;;;;;;1.59;82.44;100070.05;127387;1092;104474;-83
2020/12/12 06:05:02;;;;;;;;;;;;;;;1.60;82.86;100077.02;127378;1092;104506;-81
2020/12/12 06:07:41;;;;;;;25.80;8.50;;;;;;;1.63;83.04;100072.05;127387;1092;104550;-81
2020/12/12 06:10:18;;;;;;;22.50;6.83;;;;;;;1.66;83.07;100069.66;127379;1092;104580;-83
2020/12/12 06:13:04;;;;;;;20.97;6.13;;;;;;;1.69;82.81;100072.44;127255;1092;104543;-82
2020/12/12 06:15:36;;;;;;;15.13;4.93;;;;;;;1.70;82.74;100082.00;127404;1092;104667;-81
2020/12/12 06:18:26;;;;;;;18.20;6.00;;;;;;;1.65;82.81;100078.20;127369;1092;104439;-83
2020/12/12 06:20:57;;;;;;;19.20;6.73;;;;;;;1.66;82.85;100082.59;127394;1092;104462;-83
2020/12/12 06:23:29;;;;;;;19.77;6.53;;;;;;;1.67;82.68;100084.39;127376;1092;104721;-83
2020/12/12 06:26:02;;;;;;;22.70;6.45;;;;;;;1.67;82.98;100084.39;127338;1092;104430;-82
2020/12/12 06:28:42;;;;;;;25.17;6.77;;;;;;;1.66;82.80;100087.76;127350;1092;104445;-83
2020/12/12 06:31:17;;;;;;;22.47;7.30;;;;;;;1.67;82.52;100086.98;127351;1092;104439;-80
2020/12/12 06:33:54;;;;;;;20.63;7.47;;;;;;;1.66;83.06;100084.29;127341;1091;104420;-82
2020/12/12 06:36:25;;;;;;;18.60;6.47;;;;;;;1.70;82.70;100094.94;127223;1092;104474;-79
2020/12/12 06:39:16;;;;;;;19.77;5.97;;;;;;;1.67;83.11;100094.73;127319;1092;104503;-79
2020/12/12 06:41:45;;;;;;;18.40;4.87;;;;;;;1.62;82.48;100101.28;127330;1092;104617;-78
2020/12/12 06:44:31;;;;;;;17.70;6.67;;;;;;;1.60;82.45;100097.70;127347;1092;104563;-80
2020/12/12 06:47:00;;;;;;;18.33;6.03;;;;;;;1.60;82.67;100090.83;127344;1092;104566;-80
2020/12/12 06:49:29;;;;;;;16.73;5.10;;;;;;;1.59;83.05;100094.23;127323;1092;104494;-80
2020/12/12 06:51:59;;;;;;;20.87;6.77;;;;;;;1.57;82.63;100090.67;127371;1092;104439;-80
2020/12/12 06:54:28;;;;;;;21.20;6.83;;;;;;;1.57;82.68;100089.75;127357;1091;104555;-79
2020/12/12 06:56:57;;;;;;;24.53;7.53;;;;;;;1.54;82.58;100081.80;127359;1090;104558;-80
2020/12/12 06:59:29;;;;;;;16.40;5.30;;;;;;;1.51;82.94;100084.18;127327;1092;104467;-80
2020/12/12 07:01:59;;;;;;;24.30;7.10;;;;;;;1.46;82.79;100081.30;127356;1091;104436;-80
2020/12/12 07:04:30;;;;;;;21.47;7.37;;;;;;;1.43;83.15;100076.84;127337;1091;104445;-80
2020/12/12 07:07:04;;;;;;;19.17;6.20;;;;;;;1.37;82.73;100081.61;127375;1091;104430;-79
2020/12/12 07:09:33;;;;;;;;;;;;;;;1.34;83.28;100076.23;127379;1092;104430;-80
2020/12/12 07:12:02;;;;;;;22.43;7.33;;;;;;;1.34;82.80;100078.82;127370;1092;104448;-81
2020/12/12 07:14:32;;;;;;;19.07;6.60;;;;;;;1.31;82.94;100064.77;127419;1092;104926;-80
2020/12/12 07:17:02;;;;;;;21.47;7.50;;;;;;;1.39;83.47;100077.42;127294;1091;104475;-80
2020/12/12 07:19:33;;;;;;;19.70;6.10;;;;;;;1.41;82.87;100067.18;127324;1091;104436;-81
2020/12/12 07:22:04;;;;;;;16.53;5.90;;;;;;;1.40;82.77;100065.38;127372;1092;104427;-80
2020/12/12 07:24:34;;;;;;;21.13;6.70;;;;;;;1.38;83.18;100061.81;127324;1092;104536;-80
2020/12/12 07:27:04;;;;;;;17.53;6.00;;;;;;;1.40;83.20;100073.14;127338;1092;104435;-81
2020/12/12 07:29:34;;;;;;;21.17;6.53;;;;;;;1.46;82.95;100070.95;127313;1092;104520;-80
2020/12/12 07:32:03;;;;;;;15.80;5.80;;;;;;;1.54;83.02;100081.80;127443;1092;104484;-81
2020/12/12 07:34:32;;;;;;;17.43;6.40;;;;;;;1.56;83.66;100075.94;127367;1092;104564;-81
2020/12/12 07:37:03;;;;;;;18.57;6.30;;;;;;;1.59;82.71;100085.56;127343;1092;104487;-79
2020/12/12 07:39:33;;;;;;;16.53;6.20;;;;;;;1.59;83.17;100073.55;127332;1092;104602;-81
2020/12/12 07:42:05;;;;;;;18.83;6.87;;;;;;;1.59;82.89;100064.88;127350;1092;104551;-81
2020/12/12 07:44:42;;;;;;;18.10;5.93;;;;;;;1.63;83.07;100071.16;127334;1091;104516;-80
2020/12/12 07:47:12;;;;;;;19.30;7.07;;;;;;;1.64;82.98;100073.84;127356;1092;104494;-80
2020/12/12 07:49:44;;;;;;;19.80;7.27;;;;;;;1.67;82.78;100075.71;127357;1092;104419;-80
2020/12/12 07:52:19;;;;;;;19.33;6.57;;;;;;;1.69;83.14;100075.02;127270;1092;104595;-80
2020/12/12 07:54:53;;;;;;;18.80;6.93;;;;;;;1.70;82.97;100082.00;127336;1092;104570;-80
2020/12/12 07:57:22;;;;;;;19.00;6.50;;;;;;;1.65;82.85;100083.38;127386;1091;104436;-81
2020/12/12 08:00:04;;;;;;;19.77;6.50;;;;;;;1.62;83.10;100098.69;127356;1092;104436;-80
2020/12/12 08:02:42;;;;;;;23.17;6.67;;;;;;;1.57;82.72;100092.34;127383;1092;104440;-80
2020/12/12 08:05:11;;;;;;;18.90;5.80;;;;;;;1.56;82.89;100090.56;127362;1092;104437;-79
2020/12/12 08:07:40;;;;;;;18.63;6.23;;;;;;;1.49;82.42;100085.78;127325;1092;104429;-78
2020/12/12 08:10:09;;;;;;;21.30;7.47;;;;;;;1.46;82.98;100099.39;127286;1091;104509;-79
2020/12/12 08:12:39;;;;;;;16.70;5.67;;;;;;;1.49;82.71;100093.54;127313;1091;104567;-79
2020/12/12 08:15:15;;;;;;;23.47;7.20;;;;;;;1.51;82.87;100097.11;127417;1092;104429;-79
2020/12/12 08:17:45;;;;;;;16.93;5.07;;;;;;;1.55;83.34;100106.87;127355;1092;104708;-79
2020/12/12 08:20:16;;;;;;;17.57;5.77;;;;;;;1.52;82.73;100096.33;127341;1092;104485;-78
2020/12/12 08:22:46;;;;;;;13.60;5.20;;;;;;;1.49;82.82;100093.54;127356;1092;104435;-79
2020/12/12 08:25:17;;;;;;;22.83;8.30;;;;;;;1.43;82.57;100101.78;127353;1091;104493;-80
2020/12/12 08:27:46;;;;;;;22.20;7.57;;;;;;;1.48;83.17;100091.73;127377;1092;104427;-79
2020/12/12 08:30:15;;;;;;;21.40;7.50;;;;;;;1.53;83.33;100098.13;127327;1092;104510;-79
2020/12/12 08:32:46;;;;;;;18.53;6.70;;;;;;;1.55;83.35;100096.52;127336;1092;104442;-78
2020/12/12 08:35:19;;;;;;;23.33;7.67;;;;;;;1.53;82.82;100092.95;127366;1092;104564;-78
2020/12/12 08:38:00;;;;;;;18.37;6.20;;;;;;;1.53;83.12;100088.66;127367;1092;104442;-80
2020/12/12 08:40:31;;;;;;;19.93;6.57;;;;;;;1.57;83.21;100084.58;127376;1091;104451;-79
2020/12/12 08:43:05;;;;;;;20.90;7.87;;;;;;;1.59;82.95;100085.56;127419;1091;104554;-80
2020/12/12 08:45:37;;;;;;;22.60;7.70;;;;;;;1.59;83.04;100088.14;127370;1091;104433;-79
2020/12/12 08:48:11;;;;;;;22.03;7.93;;;;;;;1.56;82.51;100090.56;127360;1092;104465;-80
2020/12/12 08:50:52;;;;;;;24.70;7.73;;;;;;;1.58;83.06;100082.09;127371;1092;104430;-80
2020/12/12 08:53:32;;;;;;;20.50;7.87;;;;;;;1.65;83.08;100085.95;127409;1091;104427;-80
2020/12/12 08:56:13;;;;;;;21.90;7.97;;;;;;;1.70;83.29;100086.25;127401;1091;104430;-81
2020/12/12 08:58:45;;;;;;;22.03;8.37;;;;;;;1.74;83.03;100083.97;127365;1092;104567;-82
2020/12/12 09:01:30;;;;;;;21.07;6.90;;;;;;;1.77;82.90;100081.58;127397;1092;104615;-80
2020/12/12 09:04:05;;;;;;;18.70;6.85;;;;;;;1.73;82.87;100082.20;127348;1091;104480;-80
2020/12/12 09:06:47;;;;;;;20.17;7.73;;;;;;;1.73;83.35;100082.20;127394;1092;104493;-81
2020/12/12 09:09:17;;;;;;;16.30;6.13;;;;;;;1.71;83.05;100076.01;127382;1092;104427;-81
2020/12/12 09:11:53;;;;;;;20.00;7.63;;;;;;;1.69;82.45;100079.31;127286;1092;104442;-82
2020/12/12 09:14:24;;;;;;;18.23;7.03;;;;;;;1.65;82.73;100069.55;127378;1092;104430;-83
2020/12/12 09:16:56;;;;;;;23.50;9.33;;;;;;;1.67;83.21;100071.45;127358;1092;104930;-83
2020/12/12 09:19:26;;;;;;;19.20;6.20;;;;;;;1.72;82.74;100075.22;127354;1092;104516;-83
2020/12/12 09:21:57;;;;;;;20.40;7.13;;;;;;;1.67;82.95;100076.62;127338;1092;104567;-81
2020/12/12 09:24:27;;;;;;;21.27;7.53;;;;;;;1.59;82.85;100064.88;127335;1091;104455;-81
2020/12/12 09:26:59;;;;;;;21.43;7.97;;;;;;;1.58;82.65;100065.69;127382;1092;104456;-82
2020/12/12 09:29:29;;;;;;;19.17;7.10;;;;;;;1.62;82.79;100065.07;127414;1092;104436;-82
2020/12/12 09:31:58;;;;;;;21.03;7.63;;;;;;;1.66;82.93;100069.66;127327;1092;104684;-83
2020/12/12 09:34:27;;;;;;;13.70;5.63;;;;;;;1.68;83.23;100062.88;127339;1092;104436;-82
2020/12/12 09:36:56;;;;;;;22.03;8.30;;;;;;;1.68;83.02;100055.12;127348;1092;104573;-83
2020/12/12 09:39:26;;;;;;;20.20;6.70;;;;;;;1.75;83.39;100043.49;127368;1091;104449;-83
2020/12/12 09:41:58;;;;;;;14.37;6.07;;;;;;;1.78;82.91;100049.75;127383;1092;104552;-82
2020/12/12 09:44:28;;;;;;;13.83;5.90;;;;;;;1.77;82.93;100044.47;127388;1092;104430;-82
2020/12/12 09:46:57;;;;;;;15.77;5.47;;;;;;;1.80;82.77;100044.67;127365;1092;104528;-80
2020/12/12 09:49:26;;;;;;;18.73;6.77;;;;;;;1.87;82.58;100043.35;127335;1092;104436;-82
2020/12/12 09:51:55;;;;;;;14.97;6.13;;;;;;;1.94;83.26;100045.54;127408;1092;104494;-82
2020/12/12 09:54:24;;;;;;;12.03;5.07;;;;;;;1.99;82.74;100044.13;127329;1092;104438;-81
2020/12/12 09:56:54;;;;;;;16.27;6.13;;;;;;;1.99;82.87;100054.47;127260;1092;104942;-81
2020/12/12 09:59:22;;;;;;;15.37;6.37;;;;;;;2.01;82.98;100046.80;127400;1092;104599;-82
2020/12/12 10:01:51;;;;;;;13.37;5.33;;;;;;;1.96;83.41;100041.34;127326;1092;104442;-81
2020/12/12 10:04:20;;;;;;;12.87;5.40;;;;;;;1.94;82.80;100043.84;127320;1092;104442;-81
2020/12/12 10:06:52;;;;;;;13.80;5.50;;;;;;;1.94;82.81;100045.54;127344;1092;104432;-81
2020/12/12 10:09:21;;;;;;;11.50;4.97;;;;;;;1.96;82.34;100041.34;127348;1092;104560;-82
2020/12/12 10:11:51;;;;;;;12.37;5.43;;;;;;;2.00;82.77;100053.69;127354;1092;104432;-82
2020/12/12 10:14:21;;;;;;;15.33;6.03;;;;;;;1.91;82.64;100045.34;127334;1091;104535;-82
2020/12/12 10:16:50;;;;;;;15.50;5.53;;;;;;;1.90;82.81;100047.05;127369;1092;104429;-81
2020/12/12 10:19:19;;;;;;;14.47;5.47;;;;;;;1.85;82.38;100040.66;127400;1092;104439;-81
2020/12/12 10:21:48;;;;;;;17.63;6.13;;;;;;;1.85;82.76;100040.66;127398;1092;104429;-81
2020/12/12 10:24:17;;;;;;;12.40;5.33;;;;;;;1.84;82.86;100045.75;127373;1092;104490;-80
2020/12/12 10:26:47;;;;;;;7.93;3.90;;;;;;;1.88;82.72;100045.16;127365;1092;104571;-79
2020/12/12 10:29:16;;;;;;;13.23;5.27;;;;;;;1.83;82.61;100050.03;127385;1092;104474;-81
2020/12/12 10:31:45;;;;;;;13.57;5.53;;;;;;;1.85;83.25;100044.95;127336;1092;104493;-81
2020/12/12 10:34:14;;;;;;;15.17;5.47;;;;;;;1.85;82.77;100047.55;127402;1092;104567;-80
2020/12/12 10:36:43;;;;;;;11.87;4.90;;;;;;;1.88;83.05;100053.80;127357;1092;104439;-80
2020/12/12 10:39:12;;;;;;;13.70;5.63;;;;;;;1.84;82.46;100050.92;127326;1092;104446;-80
2020/12/12 10:41:41;;;;;;;15.27;5.60;;;;;;;1.85;82.92;100047.55;127374;1092;104525;-81
2020/12/12 10:44:10;;;;;;;12.70;5.23;;;;;;;1.77;82.19;100045.36;127375;1092;104555;-81
2020/12/12 10:46:39;;;;;;;16.67;6.80;;;;;;;1.75;83.14;100039.20;127415;1092;104503;-81
2020/12/12 10:49:08;;;;;;;14.40;5.80;;;;;;;1.85;82.59;100035.49;127389;1092;104577;-80
2020/12/12 10:51:42;;;;;;;17.37;6.80;;;;;;;1.89;83.13;100032.31;127363;1092;104487;-81
2020/12/12 10:54:11;;;;;;;15.13;6.47;;;;;;;1.92;83.38;100026.45;127378;1092;104458;-81
2020/12/12 10:56:40;;;;;;;14.90;6.07;;;;;;;1.92;83.05;100035.09;127370;1092;104535;-82
2020/12/12 10:59:09;;;;;;;15.70;5.87;;;;;;;1.93;82.83;100028.21;127394;1092;104439;-81
2020/12/12 11:01:38;;;;;;;8.07;4.07;;;;;;;1.95;83.42;100024.05;127359;1092;104436;-82
2020/12/12 11:04:07;;;;;;;14.40;5.83;;;;;;;1.96;83.54;100023.23;127336;1092;104641;-82
2020/12/12 11:06:36;;;;;;;16.67;6.00;;;;;;;1.99;83.18;100026.01;127349;1092;104471;-81
2020/12/12 11:09:05;;;;;;;15.53;6.70;;;;;;;1.95;83.18;100034.40;127337;1092;104455;-81
2020/12/12 11:11:39;;;;;;;10.17;4.63;;;;;;;1.89;82.73;100034.02;127387;1091;104436;-81
2020/12/12 11:14:08;;;;;;;14.07;6.03;;;;;;;1.81;83.15;100033.53;127362;1091;104432;-82
2020/12/12 11:16:37;;;;;;;15.03;6.20;;;;;;;1.83;83.55;100031.92;127377;1092;104455;-82
2020/12/12 11:19:06;;;;;;;11.93;5.27;;;;;;;1.85;83.13;100029.44;127323;1092;104567;-81
2020/12/12 11:21:35;;;;;;;14.67;6.03;;;;;;;1.88;83.81;100022.75;127399;1092;104472;-81
2020/12/12 11:24:04;;;;;;;19.67;7.27;;;;;;;1.88;83.02;100024.45;127367;1092;104480;-81
2020/12/12 11:26:35;;;;;;;21.33;7.77;;;;;;;1.86;82.44;100033.83;127311;1092;104685;-80